Orlando, Florida
Traffic Map
Current Weather Conditions
Orlando, Florida
Clear
Clear
23°
Feels Like: 23°
Wind Chill: 23° Ceiling: Unl
Heat Index: 23° Visibility: 10mi
Dew Point: 18° Wind: 8mph
Humidity: 73% Direction: 150° (SSE)
Pressure: 30.28in Gusts: 0mph
Raw Report DataKORL 171453Z 15007KT 10SM CLR 23/18 A3028 RMK AO2 SLP255 T02280178 53012
Traffic Incident Summary
Active as of:
Severity:
Category:
InformationThere was an issue retrieving the traffic information for this location. Please try a different location or try again shortly.
Advertisements
Track Severe Weather on mobile